sensor_id;sensor_type;location;lat;lon;timestamp;pressure;altitude;pressure_sealevel;temperature;humidity
58757;BME280;44527;47.460;19.016;2023-08-30T10:43:11;99361.34;;;24.45;66.99
58757;BME280;44527;47.460;19.016;2023-08-30T10:46:14;99352.44;;;24.83;65.57
58757;BME280;44527;47.460;19.016;2023-08-30T10:49:18;99353.87;;;24.79;65.07
58757;BME280;44527;47.460;19.016;2023-08-30T10:52:22;99353.87;;;24.79;63.44
58757;BME280;44527;47.460;19.016;2023-08-30T10:55:24;99361.06;;;24.85;64.75
58757;BME280;44527;47.460;19.016;2023-08-30T10:58:38;99362.19;;;24.77;64.59
58757;BME280;44527;47.460;19.016;2023-08-30T11:01:41;99350.69;;;24.95;63.64
58757;BME280;44527;47.460;19.016;2023-08-30T11:04:47;99348.97;;;25.00;63.16
58757;BME280;44527;47.460;19.016;2023-08-30T11:07:50;99348.75;;;25.02;62.00
58757;BME280;44527;47.460;19.016;2023-08-30T11:11:05;99339.38;;;25.11;62.44
58757;BME280;44527;47.460;19.016;2023-08-30T11:14:07;99338.75;;;25.16;63.40
58757;BME280;44527;47.460;19.016;2023-08-30T11:17:11;99346.03;;;25.52;62.32
58757;BME280;44527;47.460;19.016;2023-08-30T11:20:15;99333.66;;;25.70;60.87
58757;BME280;44527;47.460;19.016;2023-08-30T11:23:23;99335.28;;;25.71;61.85
58757;BME280;44527;47.460;19.016;2023-08-30T11:26:25;99335.22;;;25.77;61.51
58757;BME280;44527;47.460;19.016;2023-08-30T11:29:28;99344.78;;;25.92;61.08
58757;BME280;44527;47.460;19.016;2023-08-30T11:32:39;99333.41;;;25.71;60.34
58757;BME280;44527;47.460;19.016;2023-08-30T11:35:45;99336.19;;;25.64;60.25
58757;BME280;44527;47.460;19.016;2023-08-30T11:38:50;99338.75;;;25.78;60.18
58757;BME280;44527;47.460;19.016;2023-08-30T11:41:53;99343.97;;;25.91;60.81
58757;BME280;44527;47.460;19.016;2023-08-30T11:44:57;99337.84;;;26.02;59.42
58757;BME280;44527;47.460;19.016;2023-08-30T11:48:00;99341.72;;;26.36;56.90
58757;BME280;44527;47.460;19.016;2023-08-30T11:51:03;99328.50;;;26.65;56.56
58757;BME280;44527;47.460;19.016;2023-08-30T11:54:06;99330.69;;;26.56;55.73
58757;BME280;44527;47.460;19.016;2023-08-30T11:57:10;99330.16;;;26.36;56.06
58757;BME280;44527;47.460;19.016;2023-08-30T12:00:13;99327.09;;;26.02;58.15
58757;BME280;44527;47.460;19.016;2023-08-30T12:03:16;99327.53;;;25.62;60.99
58757;BME280;44527;47.460;19.016;2023-08-30T12:06:19;99324.00;;;25.62;61.23
58757;BME280;44527;47.460;19.016;2023-08-30T12:09:31;99325.44;;;25.64;61.82
58757;BME280;44527;47.460;19.016;2023-08-30T12:12:33;99320.28;;;25.44;62.89
58757;BME280;44527;47.460;19.016;2023-08-30T12:15:39;99328.56;;;25.43;63.46
58757;BME280;44527;47.460;19.016;2023-08-30T12:18:42;99325.44;;;25.46;63.65
58757;BME280;44527;47.460;19.016;2023-08-30T12:21:47;99317.38;;;25.64;64.79
58757;BME280;44527;47.460;19.016;2023-08-30T12:24:49;99318.13;;;25.72;63.12
58757;BME280;44527;47.460;19.016;2023-08-30T12:27:52;99314.59;;;25.71;62.53
58757;BME280;44527;47.460;19.016;2023-08-30T12:30:55;99319.25;;;25.64;61.61
58757;BME280;44527;47.460;19.016;2023-08-30T12:33:57;99321.41;;;25.55;61.73
58757;BME280;44527;47.460;19.016;2023-08-30T12:36:59;99327.12;;;25.40;63.22
58757;BME280;44527;47.460;19.016;2023-08-30T12:40:06;99320.31;;;24.94;63.99
58757;BME280;44527;47.460;19.016;2023-08-30T12:43:09;99325.16;;;24.54;65.66
58757;BME280;44527;47.460;19.016;2023-08-30T12:46:13;99316.22;;;23.97;67.61
58757;BME280;44527;47.460;19.016;2023-08-30T12:49:15;99319.38;;;23.74;67.86
58757;BME280;44527;47.460;19.016;2023-08-30T12:52:17;99315.66;;;23.68;68.17
58757;BME280;44527;47.460;19.016;2023-08-30T12:55:20;99305.19;;;23.53;69.16
58757;BME280;44527;47.460;19.016;2023-08-30T12:58:22;99311.38;;;23.60;70.46
58757;BME280;44527;47.460;19.016;2023-08-30T13:01:24;99303.34;;;23.60;69.19
58757;BME280;44527;47.460;19.016;2023-08-30T13:04:27;99296.97;;;23.42;69.23
58757;BME280;44527;47.460;19.016;2023-08-30T13:07:29;99296.59;;;23.31;71.47
58757;BME280;44527;47.460;19.016;2023-08-30T13:10:34;99299.09;;;23.20;70.69
58757;BME280;44527;47.460;19.016;2023-08-30T13:13:36;99298.06;;;23.27;71.03
58757;BME280;44527;47.460;19.016;2023-08-30T13:16:39;99306.06;;;23.40;70.36
58757;BME280;44527;47.460;19.016;2023-08-30T13:19:41;99292.66;;;23.40;70.38
58757;BME280;44527;47.460;19.016;2023-08-30T13:22:43;99295.06;;;23.62;70.04
58757;BME280;44527;47.460;19.016;2023-08-30T13:25:47;99301.41;;;23.88;68.77
58757;BME280;44527;47.460;19.016;2023-08-30T13:28:50;99303.84;;;23.89;69.21
58757;BME280;44527;47.460;19.016;2023-08-30T13:31:52;99317.63;;;23.99;67.81
58757;BME280;44527;47.460;19.016;2023-08-30T13:34:54;99309.28;;;24.14;68.22
58757;BME280;44527;47.460;19.016;2023-08-30T13:37:57;99314.81;;;24.26;66.63
58757;BME280;44527;47.460;19.016;2023-08-30T13:40:59;99308.72;;;24.12;66.59
58757;BME280;44527;47.460;19.016;2023-08-30T13:44:02;99319.31;;;24.32;66.17
58757;BME280;44527;47.460;19.016;2023-08-30T13:47:07;99313.50;;;24.35;65.03
58757;BME280;44527;47.460;19.016;2023-08-30T13:50:10;99314.06;;;24.50;66.30
58757;BME280;44527;47.460;19.016;2023-08-30T13:53:13;99319.91;;;23.96;65.84
58757;BME280;44527;47.460;19.016;2023-08-30T13:56:15;99317.13;;;23.71;65.86
58757;BME280;44527;47.460;19.016;2023-08-30T13:59:18;99316.09;;;23.58;67.88
58757;BME280;44527;47.460;19.016;2023-08-30T14:02:20;99311.34;;;23.67;68.06
58757;BME280;44527;47.460;19.016;2023-08-30T14:05:25;99316.34;;;23.44;66.79
58757;BME280;44527;47.460;19.016;2023-08-30T14:08:27;99320.63;;;23.58;66.69
58757;BME280;44527;47.460;19.016;2023-08-30T14:11:30;99326.62;;;23.53;68.31
58757;BME280;44527;47.460;19.016;2023-08-30T14:14:32;99322.69;;;23.56;67.76
58757;BME280;44527;47.460;19.016;2023-08-30T14:17:35;99326.47;;;23.28;67.83
58757;BME280;44527;47.460;19.016;2023-08-30T14:20:37;99321.31;;;23.40;68.80
58757;BME280;44527;47.460;19.016;2023-08-30T14:23:40;99326.06;;;23.18;68.54
58757;BME280;44527;47.460;19.016;2023-08-30T14:26:42;99321.94;;;22.76;69.72
58757;BME280;44527;47.460;19.016;2023-08-30T14:29:45;99332.22;;;22.65;71.41
58757;BME280;44527;47.460;19.016;2023-08-30T14:32:47;99330.97;;;22.61;71.78
58757;BME280;44527;47.460;19.016;2023-08-30T14:35:50;99328.06;;;22.49;72.99
58757;BME280;44527;47.460;19.016;2023-08-30T14:38:52;99340.59;;;22.29;74.08
58757;BME280;44527;47.460;19.016;2023-08-30T14:41:55;99347.69;;;22.15;76.10
58757;BME280;44527;47.460;19.016;2023-08-30T14:44:57;99345.69;;;22.17;74.65
58757;BME280;44527;47.460;19.016;2023-08-30T14:48:00;99340.88;;;22.06;75.11
58757;BME280;44527;47.460;19.016;2023-08-30T14:51:05;99350.63;;;22.20;74.39
58757;BME280;44527;47.460;19.016;2023-08-30T14:54:07;99358.88;;;22.25;73.51
58757;BME280;44527;47.460;19.016;2023-08-30T14:57:10;99358.66;;;22.27;73.37
58757;BME280;44527;47.460;19.016;2023-08-30T15:00:13;99366.03;;;22.18;74.87
58757;BME280;44527;47.460;19.016;2023-08-30T15:03:16;99360.41;;;22.07;75.84
58757;BME280;44527;47.460;19.016;2023-08-30T15:06:19;99366.38;;;22.02;76.42
58757;BME280;44527;47.460;19.016;2023-08-30T15:09:21;99362.88;;;22.01;75.28
58757;BME280;44527;47.460;19.016;2023-08-30T15:12:24;99363.38;;;21.77;75.87
58757;BME280;44527;47.460;19.016;2023-08-30T15:15:26;99358.03;;;21.77;76.62
58757;BME280;44527;47.460;19.016;2023-08-30T15:18:28;99357.62;;;21.73;76.66
58757;BME280;44527;47.460;19.016;2023-08-30T15:21:31;99357.94;;;21.64;76.51
58757;BME280;44527;47.460;19.016;2023-08-30T15:24:33;99358.81;;;21.64;77.66
58757;BME280;44527;47.460;19.016;2023-08-30T15:27:36;99349.75;;;21.65;77.40
58757;BME280;44527;47.460;19.016;2023-08-30T15:30:44;99348.91;;;21.58;77.49
58757;BME280;44527;47.460;19.016;2023-08-30T15:33:46;99346.13;;;21.79;77.23
58757;BME280;44527;47.460;19.016;2023-08-30T15:36:49;99345.81;;;22.02;77.70
58757;BME280;44527;47.460;19.016;2023-08-30T15:39:58;99359.41;;;22.08;74.46
58757;BME280;44527;47.460;19.016;2023-08-30T15:43:05;99355.66;;;21.95;74.73
58757;BME280;44527;47.460;19.016;2023-08-30T15:46:09;99350.03;;;21.77;76.26
58757;BME280;44527;47.460;19.016;2023-08-30T15:49:12;99363.66;;;21.54;75.35
58757;BME280;44527;47.460;19.016;2023-08-30T15:52:14;99360.97;;;21.54;76.04
58757;BME280;44527;47.460;19.016;2023-08-30T15:55:17;99367.56;;;21.30;76.37
58757;BME280;44527;47.460;19.016;2023-08-30T15:58:20;99367.09;;;21.20;76.91
58757;BME280;44527;47.460;19.016;2023-08-30T16:01:22;99368.34;;;21.24;78.93
58757;BME280;44527;47.460;19.016;2023-08-30T16:04:25;99374.84;;;21.15;77.64
58757;BME280;44527;47.460;19.016;2023-08-30T16:07:28;99378.66;;;21.05;79.73
58757;BME280;44527;47.460;19.016;2023-08-30T16:10:31;99386.22;;;21.02;78.64
58757;BME280;44527;47.460;19.016;2023-08-30T16:13:34;99385.84;;;21.05;79.92
58757;BME280;44527;47.460;19.016;2023-08-30T16:16:36;99389.09;;;21.00;79.32
58757;BME280;44527;47.460;19.016;2023-08-30T16:19:41;99382.88;;;20.93;79.36
58757;BME280;44527;47.460;19.016;2023-08-30T16:22:43;99381.34;;;20.84;80.26
58757;BME280;44527;47.460;19.016;2023-08-30T16:25:45;99391.47;;;20.88;79.60
58757;BME280;44527;47.460;19.016;2023-08-30T16:28:48;99396.78;;;20.88;80.78
58757;BME280;44527;47.460;19.016;2023-08-30T16:31:50;99390.69;;;20.95;79.39
58757;BME280;44527;47.460;19.016;2023-08-30T16:34:55;99385.22;;;20.81;79.68
58757;BME280;44527;47.460;19.016;2023-08-30T16:37:58;99389.34;;;20.84;79.48
58757;BME280;44527;47.460;19.016;2023-08-30T16:41:01;99381.59;;;20.68;80.08
58757;BME280;44527;47.460;19.016;2023-08-30T16:44:07;99391.63;;;20.65;81.24
58757;BME280;44527;47.460;19.016;2023-08-30T16:47:09;99396.44;;;20.55;81.32
58757;BME280;44527;47.460;19.016;2023-08-30T16:50:12;99398.16;;;20.63;81.58
58757;BME280;44527;47.460;19.016;2023-08-30T16:53:14;99404.50;;;20.62;81.66
58757;BME280;44527;47.460;19.016;2023-08-30T16:56:16;99408.13;;;20.54;82.53
58757;BME280;44527;47.460;19.016;2023-08-30T16:59:19;99414.19;;;20.48;83.04
58757;BME280;44527;47.460;19.016;2023-08-30T17:02:22;99400.97;;;20.55;81.75
58757;BME280;44527;47.460;19.016;2023-08-30T17:05:25;99412.97;;;20.51;82.98
58757;BME280;44527;47.460;19.016;2023-08-30T17:08:30;99411.06;;;20.44;82.74
58757;BME280;44527;47.460;19.016;2023-08-30T17:11:36;99403.34;;;20.35;82.41
58757;BME280;44527;47.460;19.016;2023-08-30T17:14:40;99405.19;;;20.34;81.95
58757;BME280;44527;47.460;19.016;2023-08-30T17:17:43;99402.97;;;20.38;83.62
58757;BME280;44527;47.460;19.016;2023-08-30T17:20:45;99394.31;;;20.51;82.04
58757;BME280;44527;47.460;19.016;2023-08-30T17:23:48;99396.97;;;20.51;82.15
58757;BME280;44527;47.460;19.016;2023-08-30T17:26:50;99405.28;;;20.41;82.79
58757;BME280;44527;47.460;19.016;2023-08-30T17:29:53;99399.06;;;20.34;83.07
58757;BME280;44527;47.460;19.016;2023-08-30T17:32:55;99402.91;;;20.31;83.75
58757;BME280;44527;47.460;19.016;2023-08-30T17:36:00;99404.38;;;20.34;82.79
58757;BME280;44527;47.460;19.016;2023-08-30T17:39:06;99403.66;;;20.25;82.38
58757;BME280;44527;47.460;19.016;2023-08-30T17:42:09;99405.31;;;20.26;83.80
58757;BME280;44527;47.460;19.016;2023-08-30T17:45:12;99408.81;;;20.27;84.24
58757;BME280;44527;47.460;19.016;2023-08-30T17:48:15;99420.53;;;20.32;84.15
58757;BME280;44527;47.460;19.016;2023-08-30T17:51:17;99413.09;;;20.42;83.10
58757;BME280;44527;47.460;19.016;2023-08-30T17:54:19;99418.38;;;20.21;85.75
58757;BME280;44527;47.460;19.016;2023-08-30T17:57:22;99430.22;;;20.18;84.28
58757;BME280;44527;47.460;19.016;2023-08-30T18:00:25;99432.34;;;20.08;84.54
58757;BME280;44527;47.460;19.016;2023-08-30T18:03:27;99444.81;;;20.08;85.67
58757;BME280;44527;47.460;19.016;2023-08-30T18:06:31;99444.47;;;20.11;86.12
58757;BME280;44527;47.460;19.016;2023-08-30T18:09:34;99449.91;;;20.17;85.04
58757;BME280;44527;47.460;19.016;2023-08-30T18:12:36;99452.56;;;20.17;84.99
58757;BME280;44527;47.460;19.016;2023-08-30T18:15:39;99452.19;;;20.20;85.08
58757;BME280;44527;47.460;19.016;2023-08-30T18:18:41;99456.78;;;20.12;84.26
58757;BME280;44527;47.460;19.016;2023-08-30T18:21:44;99454.09;;;19.82;85.70
58757;BME280;44527;47.460;19.016;2023-08-30T18:24:47;99453.19;;;19.75;86.03
58757;BME280;44527;47.460;19.016;2023-08-30T18:27:49;99453.28;;;19.67;87.02
58757;BME280;44527;47.460;19.016;2023-08-30T18:30:52;99463.09;;;19.66;86.50
58757;BME280;44527;47.460;19.016;2023-08-30T18:33:54;99455.97;;;19.59;87.34
58757;BME280;44527;47.460;19.016;2023-08-30T18:36:56;99456.44;;;19.47;88.30
58757;BME280;44527;47.460;19.016;2023-08-30T18:40:00;99462.38;;;19.35;89.69
58757;BME280;44527;47.460;19.016;2023-08-30T18:43:02;99468.22;;;19.30;89.79
58757;BME280;44527;47.460;19.016;2023-08-30T18:46:05;99466.97;;;19.18;91.49
58757;BME280;44527;47.460;19.016;2023-08-30T18:49:07;99468.09;;;19.00;91.26
58757;BME280;44527;47.460;19.016;2023-08-30T18:52:10;99469.06;;;19.08;91.53
58757;BME280;44527;47.460;19.016;2023-08-30T18:55:15;99475.25;;;19.00;92.20
58757;BME280;44527;47.460;19.016;2023-08-30T18:58:17;99481.84;;;18.81;93.55
58757;BME280;44527;47.460;19.016;2023-08-30T19:01:20;99481.72;;;18.74;94.33
58757;BME280;44527;47.460;19.016;2023-08-30T19:04:22;99489.72;;;18.66;94.67
58757;BME280;44527;47.460;19.016;2023-08-30T19:07:25;99495.09;;;18.58;95.51
58757;BME280;44527;47.460;19.016;2023-08-30T19:10:27;99497.22;;;18.54;95.76
58757;BME280;44527;47.460;19.016;2023-08-30T19:13:30;99496.13;;;18.49;96.48
58757;BME280;44527;47.460;19.016;2023-08-30T19:16:34;99503.59;;;18.45;96.88
58757;BME280;44527;47.460;19.016;2023-08-30T19:19:37;99505.59;;;18.43;97.26
58757;BME280;44527;47.460;19.016;2023-08-30T19:22:40;99503.94;;;18.42;96.88
58757;BME280;44527;47.460;19.016;2023-08-30T19:25:43;99504.84;;;18.66;95.67
58757;BME280;44527;47.460;19.016;2023-08-30T19:28:45;99505.66;;;18.66;94.67
58757;BME280;44527;47.460;19.016;2023-08-30T19:31:49;99503.69;;;18.60;95.77
58757;BME280;44527;47.460;19.016;2023-08-30T19:34:52;99502.66;;;18.30;96.69
58757;BME280;44527;47.460;19.016;2023-08-30T19:37:55;99497.06;;;18.17;98.28
58757;BME280;44527;47.460;19.016;2023-08-30T19:40:58;99495.09;;;18.10;98.91
58757;BME280;44527;47.460;19.016;2023-08-30T19:44:00;99488.28;;;18.08;99.59
58757;BME280;44527;47.460;19.016;2023-08-30T19:47:02;99485.81;;;18.06;98.94
58757;BME280;44527;47.460;19.016;2023-08-30T19:50:09;99493.44;;;18.01;100.00
58757;BME280;44527;47.460;19.016;2023-08-30T19:53:11;99488.63;;;18.05;99.45
58757;BME280;44527;47.460;19.016;2023-08-30T19:56:14;99481.69;;;17.96;100.00
58757;BME280;44527;47.460;19.016;2023-08-30T19:59:16;99476.91;;;17.66;100.00
58757;BME280;44527;47.460;19.016;2023-08-30T20:02:18;99478.38;;;17.69;100.00
58757;BME280;44527;47.460;19.016;2023-08-30T20:05:21;99477.00;;;18.06;99.57
58757;BME280;44527;47.460;19.016;2023-08-30T20:08:25;99483.78;;;18.08;98.53
58757;BME280;44527;47.460;19.016;2023-08-30T20:11:28;99496.44;;;18.06;99.63
58757;BME280;44527;47.460;19.016;2023-08-30T20:14:31;99501.94;;;17.88;99.90
58757;BME280;44527;47.460;19.016;2023-08-30T20:17:34;99503.25;;;18.01;99.06
58757;BME280;44527;47.460;19.016;2023-08-30T20:20:38;99508.56;;;17.84;99.84
58757;BME280;44527;47.460;19.016;2023-08-30T20:23:40;99516.38;;;17.69;100.00
58757;BME280;44527;47.460;19.016;2023-08-30T20:26:46;99525.34;;;17.52;100.00
58757;BME280;44527;47.460;19.016;2023-08-30T20:29:49;99534.28;;;17.43;100.00
58757;BME280;44527;47.460;19.016;2023-08-30T20:32:52;99532.97;;;17.39;100.00
58757;BME280;44527;47.460;19.016;2023-08-30T20:35:55;99535.78;;;17.37;100.00
58757;BME280;44527;47.460;19.016;2023-08-30T20:38:58;99526.97;;;17.29;100.00
58757;BME280;44527;47.460;19.016;2023-08-30T20:42:00;99522.19;;;17.24;100.00
58757;BME280;44527;47.460;19.016;2023-08-30T20:45:03;99519.69;;;17.14;100.00
58757;BME280;44527;47.460;19.016;2023-08-30T20:48:06;99523.97;;;17.07;100.00
58757;BME280;44527;47.460;19.016;2023-08-30T20:51:10;99524.47;;;17.11;100.00
58757;BME280;44527;47.460;19.016;2023-08-30T20:54:12;99520.66;;;17.05;100.00
58757;BME280;44527;47.460;19.016;2023-08-30T20:57:15;99526.28;;;17.02;100.00
58757;BME280;44527;47.460;19.016;2023-08-30T21:00:18;99523.97;;;17.07;100.00
58757;BME280;44527;47.460;19.016;2023-08-30T21:03:20;99525.78;;;17.07;100.00
58757;BME280;44527;47.460;19.016;2023-08-30T21:06:23;99526.78;;;17.06;100.00
58757;BME280;44527;47.460;19.016;2023-08-30T21:09:29;99531.59;;;17.02;100.00
58757;BME280;44527;47.460;19.016;2023-08-30T21:12:31;99530.88;;;16.92;100.00
58757;BME280;44527;47.460;19.016;2023-08-30T21:15:33;99538.63;;;16.77;100.00
58757;BME280;44527;47.460;19.016;2023-08-30T21:18:36;99539.75;;;16.74;100.00
58757;BME280;44527;47.460;19.016;2023-08-30T21:21:38;99547.12;;;16.97;100.00
58757;BME280;44527;47.460;19.016;2023-08-30T21:24:41;99546.84;;;17.08;100.00
58757;BME280;44527;47.460;19.016;2023-08-30T21:27:43;99539.69;;;17.00;100.00
58757;BME280;44527;47.460;19.016;2023-08-30T21:30:46;99539.53;;;17.10;100.00
58757;BME280;44527;47.460;19.016;2023-08-30T21:33:48;99549.50;;;17.08;100.00
58757;BME280;44527;47.460;19.016;2023-08-30T21:36:54;99556.78;;;17.06;100.00
58757;BME280;44527;47.460;19.016;2023-08-30T21:39:57;99562.44;;;17.11;100.00
58757;BME280;44527;47.460;19.016;2023-08-30T21:42:59;99556.28;;;17.11;100.00
58757;BME280;44527;47.460;19.016;2023-08-30T21:46:02;99550.66;;;17.06;100.00
58757;BME280;44527;47.460;19.016;2023-08-30T21:49:04;99553.91;;;16.91;100.00
58757;BME280;44527;47.460;19.016;2023-08-30T21:52:07;99554.75;;;16.92;100.00
58757;BME280;44527;47.460;19.016;2023-08-30T21:55:10;99553.94;;;16.99;100.00
58757;BME280;44527;47.460;19.016;2023-08-30T21:58:13;99552.94;;;17.00;100.00
58757;BME280;44527;47.460;19.016;2023-08-30T22:01:16;99550.59;;;16.89;100.00
58757;BME280;44527;47.460;19.016;2023-08-30T22:04:18;99549.91;;;16.79;100.00
58757;BME280;44527;47.460;19.016;2023-08-30T22:07:21;99545.06;;;16.74;100.00
58757;BME280;44527;47.460;19.016;2023-08-30T22:10:24;99546.84;;;16.74;100.00
58757;BME280;44527;47.460;19.016;2023-08-30T22:13:26;99547.03;;;16.72;100.00
58757;BME280;44527;47.460;19.016;2023-08-30T22:16:30;99545.75;;;16.76;100.00
58757;BME280;44527;47.460;19.016;2023-08-30T22:19:32;99543.87;;;16.69;100.00
58757;BME280;44527;47.460;19.016;2023-08-30T22:22:36;99546.84;;;16.74;100.00
58757;BME280;44527;47.460;19.016;2023-08-30T22:25:40;99551.09;;;16.85;100.00
58757;BME280;44527;47.460;19.016;2023-08-30T22:28:42;99548.06;;;16.80;100.00
58757;BME280;44527;47.460;19.016;2023-08-30T22:31:45;99549.75;;;16.81;100.00
58757;BME280;44527;47.460;19.016;2023-08-30T22:34:47;99548.56;;;16.83;100.00
58757;BME280;44527;47.460;19.016;2023-08-30T22:37:49;99550.25;;;16.84;100.00
58757;BME280;44527;47.460;19.016;2023-08-30T22:40:52;99552.72;;;16.86;100.00
58757;BME280;44527;47.460;19.016;2023-08-30T22:43:55;99558.16;;;16.76;100.00
58757;BME280;44527;47.460;19.016;2023-08-30T22:46:58;99566.63;;;16.80;100.00
58757;BME280;44527;47.460;19.016;2023-08-30T22:50:00;99560.59;;;16.69;100.00
58757;BME280;44527;47.460;19.016;2023-08-30T22:53:03;99562.25;;;16.70;100.00
58757;BME280;44527;47.460;19.016;2023-08-30T22:56:06;99561.56;;;16.60;100.00
58757;BME280;44527;47.460;19.016;2023-08-30T22:59:11;99570.78;;;16.48;100.00
58757;BME280;44527;47.460;19.016;2023-08-30T23:02:13;99571.03;;;16.37;100.00
58757;BME280;44527;47.460;19.016;2023-08-30T23:05:17;99568.13;;;16.48;100.00
58757;BME280;44527;47.460;19.016;2023-08-30T23:08:19;99563.00;;;16.20;100.00
58757;BME280;44527;47.460;19.016;2023-08-30T23:11:22;99554.81;;;16.31;100.00
58757;BME280;44527;47.460;19.016;2023-08-30T23:14:24;99558.09;;;16.34;100.00
58757;BME280;44527;47.460;19.016;2023-08-30T23:17:27;99565.53;;;16.30;100.00
58757;BME280;44527;47.460;19.016;2023-08-30T23:20:32;99570.84;;;16.30;100.00
58757;BME280;44527;47.460;19.016;2023-08-30T23:23:37;99569.75;;;16.41;100.00
58757;BME280;44527;47.460;19.016;2023-08-30T23:26:42;99571.91;;;16.45;100.00
58757;BME280;44527;47.460;19.016;2023-08-30T23:29:45;99570.91;;;16.38;100.00
58757;BME280;44527;47.460;19.016;2023-08-30T23:32:47;99567.44;;;16.80;100.00
58757;BME280;44527;47.460;19.016;2023-08-30T23:35:50;99577.53;;;16.76;100.00
58757;BME280;44527;47.460;19.016;2023-08-30T23:38:53;99575.50;;;16.70;100.00
58757;BME280;44527;47.460;19.016;2023-08-30T23:41:57;99572.78;;;16.54;100.00
58757;BME280;44527;47.460;19.016;2023-08-30T23:45:00;99575.00;;;16.67;100.00
58757;BME280;44527;47.460;19.016;2023-08-30T23:48:03;99581.03;;;16.77;100.00
58757;BME280;44527;47.460;19.016;2023-08-30T23:51:05;99577.69;;;16.75;100.00
58757;BME280;44527;47.460;19.016;2023-08-30T23:54:08;99576.09;;;16.82;100.00
58757;BME280;44527;47.460;19.016;2023-08-30T23:57:11;99581.25;;;16.58;100.00
